createdAt,value
2023-02-24T00:00:38.669Z,32.00
2023-02-24T00:03:27.531Z,30.47
2023-02-24T00:06:16.384Z,30.03
2023-02-24T00:09:08.605Z,29.33
2023-02-24T00:11:59.284Z,31.20
2023-02-24T00:14:48.091Z,30.50
2023-02-24T00:17:38.776Z,30.33
2023-02-24T00:20:27.496Z,31.13
2023-02-24T00:23:18.435Z,31.50
2023-02-24T00:26:08.214Z,30.63
2023-02-24T00:28:57.098Z,31.60
2023-02-24T00:31:47.375Z,31.07
2023-02-24T00:34:38.269Z,31.60
2023-02-24T00:37:27.048Z,31.27
2023-02-24T00:40:16.390Z,31.07
2023-02-24T00:43:05.673Z,32.07
2023-02-24T00:45:54.506Z,31.50
2023-02-24T00:48:45.906Z,31.43
2023-02-24T00:51:39.604Z,31.63
2023-02-24T00:54:28.472Z,30.83
2023-02-24T00:57:20.642Z,30.63
2023-02-24T01:00:19.960Z,32.23
2023-02-24T01:03:08.698Z,31.47
2023-02-24T01:05:58.009Z,30.73
2023-02-24T01:08:50.204Z,31.20
2023-02-24T01:12:02.692Z,30.83
2023-02-24T01:14:53.916Z,31.00
2023-02-24T01:17:42.651Z,31.73
2023-02-24T01:20:33.214Z,30.60
2023-02-24T01:23:21.910Z,30.40
2023-02-24T01:26:12.099Z,31.20
2023-02-24T01:29:02.466Z,31.33
2023-02-24T01:31:53.068Z,29.80
2023-02-24T01:34:42.672Z,29.40
2023-02-24T01:37:31.370Z,31.50
2023-02-24T01:40:21.903Z,31.70
2023-02-24T01:43:16.106Z,30.53
2023-02-24T01:46:05.330Z,31.07
2023-02-24T01:48:58.740Z,31.30
2023-02-24T01:51:52.103Z,31.63
2023-02-24T01:54:43.777Z,31.77
2023-02-24T01:57:37.089Z,32.53
2023-02-24T02:00:47.093Z,30.97
2023-02-24T02:03:37.632Z,31.23
2023-02-24T02:06:26.760Z,31.87
2023-02-24T02:09:16.662Z,31.70
2023-02-24T02:12:06.048Z,32.63
2023-02-24T02:14:59.614Z,32.53
2023-02-24T02:18:02.837Z,31.30
2023-02-24T02:21:20.000Z,30.70
2023-02-24T02:24:38.086Z,31.90
2023-02-24T02:27:58.184Z,31.50
2023-02-24T02:31:20.383Z,30.57
2023-02-24T02:34:24.736Z,31.90
2023-02-24T02:37:20.061Z,31.40
2023-02-24T02:40:19.786Z,31.00
2023-02-24T02:43:17.368Z,31.13
2023-02-24T02:46:10.735Z,31.63
2023-02-24T02:49:03.616Z,32.67
2023-02-24T02:51:57.991Z,33.07
2023-02-24T02:54:53.796Z,32.07
2023-02-24T02:57:51.886Z,32.07
2023-02-24T03:00:50.302Z,30.83
2023-02-24T03:03:45.267Z,31.53
2023-02-24T03:06:36.220Z,32.53
2023-02-24T03:09:30.003Z,32.40
2023-02-24T03:12:22.686Z,32.93
2023-02-24T03:15:14.213Z,32.87
2023-02-24T03:18:11.296Z,32.37
2023-02-24T03:21:07.961Z,33.03
2023-02-24T03:23:57.075Z,34.20
2023-02-24T03:26:52.373Z,34.47
2023-02-24T03:29:48.877Z,32.97
2023-02-24T03:32:44.111Z,35.70
2023-02-24T03:35:35.416Z,34.30
2023-02-24T03:38:25.089Z,33.90
2023-02-24T03:41:14.591Z,34.40
2023-02-24T03:44:04.679Z,35.30
2023-02-24T03:46:55.865Z,35.57
2023-02-24T03:49:45.461Z,35.67
2023-02-24T03:52:47.128Z,36.40
2023-02-24T03:55:47.736Z,36.90
2023-02-24T03:58:47.368Z,37.30
2023-02-24T04:01:50.100Z,35.97
2023-02-24T04:04:43.483Z,36.40
2023-02-24T04:08:04.145Z,37.80
2023-02-24T04:10:58.297Z,38.17
2023-02-24T04:13:54.938Z,37.43
2023-02-24T04:16:57.449Z,38.17
2023-02-24T04:19:48.513Z,38.17
2023-02-24T04:22:41.272Z,38.17
2023-02-24T04:25:32.050Z,38.17
2023-02-24T04:28:23.470Z,40.30
2023-02-24T04:31:17.676Z,42.33
2023-02-24T04:34:09.601Z,41.60
2023-02-24T04:37:02.415Z,42.97
2023-02-24T04:39:55.201Z,43.40
2023-02-24T04:42:50.867Z,43.57
2023-02-24T04:45:40.627Z,42.70
2023-02-24T04:48:30.346Z,42.83
2023-02-24T04:51:21.184Z,43.47
2023-02-24T04:54:10.378Z,43.13
2023-02-24T04:56:59.586Z,44.33
2023-02-24T04:59:48.422Z,43.83
2023-02-24T05:02:38.454Z,45.97
2023-02-24T05:05:27.923Z,44.57
2023-02-24T05:08:17.925Z,43.80
2023-02-24T05:11:07.222Z,43.50
2023-02-24T05:13:57.177Z,47.07
2023-02-24T05:16:47.240Z,44.27
2023-02-24T05:19:53.591Z,46.53
2023-02-24T05:22:42.176Z,45.07
2023-02-24T05:25:37.727Z,45.43
2023-02-24T05:28:26.860Z,47.23
2023-02-24T05:31:21.445Z,47.60
2023-02-24T05:34:10.351Z,47.50
2023-02-24T05:37:01.912Z,47.10
2023-02-24T05:39:53.007Z,49.90
2023-02-24T05:42:45.427Z,47.77
2023-02-24T05:45:35.144Z,50.33
2023-02-24T05:48:25.063Z,50.47
2023-02-24T05:51:13.734Z,50.33
2023-02-24T05:54:05.523Z,48.60
2023-02-24T05:56:57.110Z,50.30
2023-02-24T05:59:51.588Z,47.63
2023-02-24T06:02:43.315Z,47.47
2023-02-24T06:05:33.435Z,48.83
2023-02-24T06:08:24.461Z,45.67
2023-02-24T06:11:13.941Z,45.63
2023-02-24T06:14:03.220Z,46.77
2023-02-24T06:16:53.393Z,44.80
2023-02-24T06:19:46.232Z,45.87
2023-02-24T06:22:42.413Z,45.77
2023-02-24T06:25:35.202Z,44.60
2023-02-24T06:28:23.935Z,44.97
2023-02-24T06:31:15.211Z,43.53
2023-02-24T06:34:05.325Z,43.23
2023-02-24T06:36:54.081Z,42.87
2023-02-24T06:39:43.595Z,43.43
2023-02-24T06:42:32.416Z,42.87
2023-02-24T06:45:22.285Z,42.80
2023-02-24T06:48:12.119Z,43.17
2023-02-24T06:51:05.993Z,42.13
2023-02-24T06:53:56.045Z,42.13
2023-02-24T06:56:44.761Z,41.70
2023-02-24T06:59:34.439Z,39.60
2023-02-24T07:02:26.748Z,40.80
2023-02-24T07:05:17.107Z,39.57
2023-02-24T07:08:08.645Z,38.57
2023-02-24T07:10:59.989Z,38.53
2023-02-24T07:13:51.765Z,38.60
2023-02-24T07:16:45.831Z,38.80
2023-02-24T07:19:34.618Z,38.63
2023-02-24T07:22:25.360Z,35.37
2023-02-24T07:25:30.904Z,36.67
2023-02-24T07:28:19.524Z,36.67
2023-02-24T07:31:09.603Z,37.60
2023-02-24T07:34:01.226Z,37.13
2023-02-24T07:36:51.172Z,36.30
2023-02-24T07:39:40.842Z,36.70
2023-02-24T07:42:35.433Z,36.10
2023-02-24T07:45:27.462Z,35.63
2023-02-24T07:48:16.311Z,48.83
2023-02-24T07:51:08.920Z,38.63
2023-02-24T07:54:00.001Z,34.60
2023-02-24T07:56:56.588Z,34.23
2023-02-24T07:59:48.084Z,35.37
2023-02-24T08:02:38.920Z,35.23
2023-02-24T08:05:27.762Z,34.20
2023-02-24T08:08:21.124Z,35.20
2023-02-24T08:11:10.604Z,35.97
2023-02-24T08:13:59.514Z,33.80
2023-02-24T08:16:52.499Z,33.90
2023-02-24T08:19:41.319Z,32.90
2023-02-24T08:22:37.463Z,32.57
2023-02-24T08:25:36.114Z,33.67
2023-02-24T08:28:27.038Z,31.47
2023-02-24T08:31:18.790Z,31.77
2023-02-24T08:34:09.073Z,31.97
2023-02-24T08:36:57.936Z,30.63
2023-02-24T08:39:46.767Z,30.13
2023-02-24T08:42:35.704Z,28.57
2023-02-24T08:45:24.652Z,28.40
2023-02-24T08:48:26.405Z,30.10
2023-02-24T08:51:22.971Z,28.23
2023-02-24T08:54:16.432Z,29.38
2023-02-24T08:57:09.186Z,28.27
2023-02-24T08:59:58.861Z,27.60
2023-02-24T09:02:48.402Z,27.00
2023-02-24T09:05:39.402Z,26.02
2023-02-24T09:08:32.820Z,25.05
2023-02-24T09:11:23.000Z,26.88
2023-02-24T09:14:32.197Z,25.75
2023-02-24T09:17:30.799Z,25.98
2023-02-24T09:20:56.645Z,27.05
2023-02-24T09:23:47.131Z,26.30
2023-02-24T09:26:43.371Z,25.13
2023-02-24T09:29:34.717Z,25.13
2023-02-24T09:32:23.481Z,25.85
2023-02-24T09:35:15.061Z,26.30
2023-02-24T09:38:06.356Z,24.90
2023-02-24T09:41:29.157Z,25.08
2023-02-24T09:44:18.786Z,24.60
2023-02-24T09:47:20.118Z,24.10
2023-02-24T09:50:47.318Z,24.50
2023-02-24T09:53:41.270Z,25.90
2023-02-24T09:56:42.663Z,25.80
2023-02-24T09:59:37.556Z,23.50
2023-02-24T10:02:44.477Z,23.77
2023-02-24T10:05:38.755Z,24.45
2023-02-24T10:08:34.439Z,25.60
2023-02-24T10:11:33.005Z,25.58
2023-02-24T10:14:37.910Z,24.98
2023-02-24T10:17:40.390Z,23.10
2023-02-24T10:20:40.503Z,23.65
2023-02-24T10:23:39.118Z,24.13
2023-02-24T10:26:51.360Z,24.02
2023-02-24T10:30:05.774Z,22.53
2023-02-24T10:32:59.162Z,21.73
2023-02-24T10:36:17.362Z,21.67
2023-02-24T10:39:17.132Z,17.92
2023-02-24T10:42:20.185Z,16.40
2023-02-24T10:45:18.289Z,17.25
2023-02-24T10:48:11.550Z,17.03
2023-02-24T10:51:13.176Z,15.52
2023-02-24T10:54:34.281Z,13.77
2023-02-24T10:57:39.496Z,13.38
2023-02-24T11:00:52.414Z,13.43
2023-02-24T11:03:48.081Z,12.88
2023-02-24T11:06:57.972Z,12.30
2023-02-24T11:09:52.653Z,11.83
2023-02-24T11:13:10.002Z,11.25
2023-02-24T11:16:19.370Z,10.80
2023-02-24T11:19:09.010Z,11.90
2023-02-24T11:21:58.602Z,10.80
2023-02-24T11:24:48.427Z,11.07
2023-02-24T11:27:37.425Z,10.95
2023-02-24T11:30:37.011Z,11.00
2023-02-24T11:33:35.547Z,10.63
2023-02-24T11:36:34.776Z,11.48
2023-02-24T11:39:43.721Z,10.60
2023-02-24T11:42:38.725Z,11.57
2023-02-24T11:45:33.539Z,11.57
2023-02-24T11:48:27.532Z,10.93
2023-02-24T11:51:21.317Z,10.70
2023-02-24T11:54:14.236Z,11.10
2023-02-24T11:57:04.893Z,12.60
2023-02-24T12:00:04.509Z,12.25
2023-02-24T12:03:04.156Z,12.00
2023-02-24T12:05:58.419Z,13.30
2023-02-24T12:08:55.140Z,12.85
2023-02-24T12:11:53.626Z,14.25
2023-02-24T12:14:48.863Z,13.65
2023-02-24T12:17:47.260Z,14.20
2023-02-24T12:20:41.630Z,15.00
2023-02-24T12:23:34.204Z,12.77
2023-02-24T12:26:28.155Z,14.93
2023-02-24T12:29:42.402Z,15.48
2023-02-24T12:32:43.051Z,13.80
2023-02-24T12:35:40.789Z,13.98
2023-02-24T12:38:43.454Z,12.70
2023-02-24T12:41:46.779Z,12.82
2023-02-24T12:44:45.710Z,12.85
2023-02-24T12:47:43.638Z,13.32
2023-02-24T12:50:43.515Z,12.98
2023-02-24T12:53:39.716Z,13.45
2023-02-24T12:56:37.248Z,12.68
2023-02-24T12:59:32.634Z,11.90
2023-02-24T13:02:31.739Z,33.55
2023-02-24T13:05:25.755Z,12.35
2023-02-24T13:08:26.724Z,12.02
2023-02-24T13:11:22.854Z,12.23
2023-02-24T13:14:21.229Z,11.43
2023-02-24T13:17:23.670Z,11.20
2023-02-24T13:20:15.198Z,11.07
2023-02-24T13:23:05.834Z,11.13
2023-02-24T13:25:56.633Z,10.68
2023-02-24T13:28:45.470Z,10.45
2023-02-24T13:31:46.168Z,11.60
2023-02-24T13:34:45.420Z,11.30
2023-02-24T13:37:37.697Z,10.38
2023-02-24T13:40:28.318Z,11.15
2023-02-24T13:43:25.071Z,10.90
2023-02-24T13:46:20.130Z,11.25
2023-02-24T13:49:27.247Z,12.38
2023-02-24T13:52:39.464Z,12.38
2023-02-24T13:55:46.858Z,12.70
2023-02-24T13:58:50.752Z,13.15
2023-02-24T14:01:49.895Z,13.02
2023-02-24T14:04:46.002Z,13.23
2023-02-24T14:07:39.461Z,12.55
2023-02-24T14:10:33.290Z,13.88
2023-02-24T14:13:28.076Z,14.25
2023-02-24T14:16:21.512Z,14.43
2023-02-24T14:19:17.233Z,14.52
2023-02-24T14:22:05.918Z,14.60
2023-02-24T14:25:04.283Z,14.93
2023-02-24T14:27:56.043Z,14.40
2023-02-24T14:30:44.994Z,15.27
2023-02-24T14:33:36.499Z,15.02
2023-02-24T14:36:28.462Z,13.95
2023-02-24T14:39:20.347Z,14.13
2023-02-24T14:42:15.939Z,14.52
2023-02-24T14:45:18.546Z,13.20
2023-02-24T14:48:07.714Z,15.05
2023-02-24T14:51:00.787Z,15.27
2023-02-24T14:53:53.755Z,13.55
2023-02-24T14:56:42.505Z,14.63
2023-02-24T14:59:36.886Z,14.48
2023-02-24T15:02:29.869Z,14.82
2023-02-24T15:05:18.877Z,16.00
2023-02-24T15:08:21.875Z,15.40
2023-02-24T15:11:22.017Z,15.15
2023-02-24T15:14:21.987Z,15.45
2023-02-24T15:17:17.647Z,15.05
2023-02-24T15:20:27.698Z,15.45
2023-02-24T15:23:27.639Z,15.50
2023-02-24T15:26:31.056Z,16.67
2023-02-24T15:29:25.211Z,17.17
2023-02-24T15:32:19.684Z,17.17
2023-02-24T15:35:22.521Z,17.00
2023-02-24T15:38:25.683Z,17.08
2023-02-24T15:41:15.530Z,16.95
2023-02-24T15:44:04.358Z,15.82
2023-02-24T15:46:53.406Z,15.02
2023-02-24T15:49:43.513Z,15.13
2023-02-24T15:52:32.499Z,14.20
2023-02-24T15:55:23.192Z,15.55
2023-02-24T15:58:17.398Z,14.65
2023-02-24T16:01:06.593Z,14.82
2023-02-24T16:03:55.446Z,14.55
2023-02-24T16:06:54.747Z,19.20
2023-02-24T16:09:45.542Z,18.33
2023-02-24T16:12:37.321Z,17.13
2023-02-24T16:15:29.376Z,17.25
2023-02-24T16:18:22.496Z,18.55
2023-02-24T16:21:11.511Z,14.27
2023-02-24T16:24:02.004Z,13.70
2023-02-24T16:26:51.109Z,11.35
2023-02-24T16:29:39.978Z,11.02
2023-02-24T16:32:28.961Z,11.00
2023-02-24T16:35:18.468Z,10.55
2023-02-24T16:38:07.408Z,12.43
2023-02-24T16:40:57.708Z,10.80
2023-02-24T16:43:46.550Z,11.48
2023-02-24T16:46:41.279Z,10.38
2023-02-24T16:49:30.180Z,10.73
2023-02-24T16:52:20.801Z,10.65
2023-02-24T16:55:13.866Z,10.30
2023-02-24T16:58:04.084Z,11.07
2023-02-24T17:00:56.342Z,10.48
2023-02-24T17:03:47.130Z,9.82
2023-02-24T17:06:35.925Z,11.13
2023-02-24T17:09:25.977Z,10.60
2023-02-24T17:12:16.718Z,10.50
2023-02-24T17:15:09.564Z,9.80
2023-02-24T17:17:58.384Z,10.07
2023-02-24T17:20:47.065Z,10.33
2023-02-24T17:23:35.937Z,9.63
2023-02-24T17:26:24.898Z,10.38
2023-02-24T17:29:14.822Z,10.35
2023-02-24T17:32:05.309Z,9.68
2023-02-24T17:34:54.088Z,9.15
2023-02-24T17:37:42.979Z,8.75
2023-02-24T17:40:32.151Z,8.23
2023-02-24T17:43:21.013Z,8.73
2023-02-24T17:46:10.053Z,8.37
2023-02-24T17:49:00.421Z,8.93
2023-02-24T17:51:51.485Z,8.73
2023-02-24T17:54:40.349Z,8.23
2023-02-24T17:57:29.840Z,9.18
2023-02-24T18:00:19.405Z,9.07
2023-02-24T18:03:08.449Z,8.73
2023-02-24T18:06:03.449Z,8.93
2023-02-24T18:08:52.970Z,8.63
2023-02-24T18:11:41.770Z,13.17
2023-02-24T18:14:30.723Z,9.43
2023-02-24T18:17:19.776Z,9.48
2023-02-24T18:20:10.131Z,10.03
2023-02-24T18:23:00.259Z,9.30
2023-02-24T18:25:49.180Z,9.50
2023-02-24T18:28:38.711Z,9.60
2023-02-24T18:31:29.002Z,9.57
2023-02-24T18:34:17.997Z,9.33
2023-02-24T18:37:06.811Z,9.80
2023-02-24T18:39:56.994Z,9.77
2023-02-24T18:42:45.871Z,8.77
2023-02-24T18:45:34.644Z,9.43
2023-02-24T18:48:23.382Z,9.33
2023-02-24T18:51:12.620Z,8.83
2023-02-24T18:54:01.869Z,9.57
2023-02-24T18:56:52.519Z,9.63
2023-02-24T18:59:41.247Z,11.30
2023-02-24T19:02:30.233Z,10.87
2023-02-24T19:05:20.492Z,11.27
2023-02-24T19:08:09.232Z,10.03
2023-02-24T19:10:57.853Z,11.20
2023-02-24T19:13:48.844Z,11.83
2023-02-24T19:16:38.821Z,11.50
2023-02-24T19:19:27.630Z,11.10
2023-02-24T19:22:16.373Z,11.20
2023-02-24T19:25:05.600Z,10.67
2023-02-24T19:27:54.868Z,11.67
2023-02-24T19:30:44.940Z,12.53
2023-02-24T19:33:33.914Z,11.90
2023-02-24T19:36:23.542Z,13.47
2023-02-24T19:39:15.798Z,12.80
2023-02-24T19:42:06.580Z,12.90
2023-02-24T19:44:55.501Z,13.53
2023-02-24T19:47:47.039Z,14.67
2023-02-24T19:50:35.761Z,15.00
2023-02-24T19:53:24.500Z,15.00
2023-02-24T19:56:13.380Z,14.50
2023-02-24T19:59:03.712Z,15.50
2023-02-24T20:01:54.553Z,16.07
2023-02-24T20:04:44.918Z,16.33
2023-02-24T20:07:34.914Z,17.30
2023-02-24T20:10:23.774Z,17.57
2023-02-24T20:13:12.634Z,16.63
2023-02-24T20:16:09.833Z,17.67
2023-02-24T20:18:58.536Z,17.57
2023-02-24T20:21:48.806Z,18.27
2023-02-24T20:24:37.979Z,16.40
2023-02-24T20:27:26.819Z,16.53
2023-02-24T20:30:16.093Z,16.10
2023-02-24T20:33:05.019Z,17.10
2023-02-24T20:35:55.084Z,17.73
2023-02-24T20:38:45.485Z,16.90
2023-02-24T20:41:34.585Z,17.33
2023-02-24T20:44:23.343Z,17.50
2023-02-24T20:47:12.129Z,17.20
2023-02-24T20:50:01.075Z,17.67
2023-02-24T20:52:49.716Z,17.83
2023-02-24T20:55:39.951Z,17.63
2023-02-24T20:58:28.631Z,17.00
2023-02-24T21:01:18.850Z,17.20
2023-02-24T21:04:09.558Z,17.27
2023-02-24T21:06:58.328Z,18.37
2023-02-24T21:09:47.357Z,19.03
2023-02-24T21:12:37.776Z,18.70
2023-02-24T21:15:26.709Z,17.83
2023-02-24T21:18:15.742Z,17.93
2023-02-24T21:21:04.565Z,16.80
2023-02-24T21:23:53.830Z,17.70
2023-02-24T21:26:42.631Z,18.13
2023-02-24T21:29:33.033Z,16.83
2023-02-24T21:32:22.115Z,15.77
2023-02-24T21:35:11.118Z,16.63
2023-02-24T21:37:59.912Z,15.93
2023-02-24T21:40:49.164Z,15.77
2023-02-24T21:43:39.230Z,14.67
2023-02-24T21:46:29.431Z,15.80
2023-02-24T21:49:18.392Z,16.30
2023-02-24T21:52:07.594Z,16.33
2023-02-24T21:54:58.018Z,16.23
2023-02-24T21:57:48.015Z,16.03
2023-02-24T22:00:36.706Z,16.17
2023-02-24T22:03:27.337Z,16.70
2023-02-24T22:06:17.961Z,16.40
2023-02-24T22:09:08.883Z,17.40
2023-02-24T22:11:58.101Z,16.60
2023-02-24T22:14:46.782Z,17.23
2023-02-24T22:17:36.236Z,17.73
2023-02-24T22:20:26.685Z,19.10
2023-02-24T22:23:15.512Z,20.40
2023-02-24T22:26:06.075Z,21.87
2023-02-24T22:28:55.375Z,23.43
2023-02-24T22:31:48.326Z,23.10
2023-02-24T22:34:38.149Z,24.60
2023-02-24T22:37:28.334Z,25.00
2023-02-24T22:40:19.295Z,21.27
2023-02-24T22:43:09.231Z,20.80
2023-02-24T22:45:59.702Z,22.20
2023-02-24T22:48:50.395Z,19.83
2023-02-24T22:51:39.247Z,20.60
2023-02-24T22:54:29.301Z,21.20
2023-02-24T22:57:18.116Z,22.13
2023-02-24T23:00:10.578Z,20.83
2023-02-24T23:02:59.267Z,21.37
2023-02-24T23:05:56.157Z,21.20
2023-02-24T23:08:46.998Z,19.50
2023-02-24T23:11:40.967Z,19.67
2023-02-24T23:14:30.614Z,19.50
2023-02-24T23:17:19.379Z,19.87
2023-02-24T23:20:12.866Z,19.43
2023-02-24T23:23:02.528Z,19.47
2023-02-24T23:25:52.495Z,19.87
2023-02-24T23:28:42.763Z,19.27
2023-02-24T23:31:32.168Z,18.63
2023-02-24T23:34:21.128Z,19.70
2023-02-24T23:37:12.094Z,18.43
2023-02-24T23:40:01.005Z,18.07
2023-02-24T23:42:49.811Z,18.13
2023-02-24T23:45:40.672Z,18.10
2023-02-24T23:48:29.373Z,16.97
2023-02-24T23:51:18.267Z,17.60
2023-02-24T23:54:07.053Z,17.80
2023-02-24T23:56:57.014Z,15.27
2023-02-24T23:59:45.908Z,15.77
